createdAt,value
2023-04-23T00:01:41.880Z,100.00
2023-04-23T00:04:12.279Z,100.00
2023-04-23T00:06:42.131Z,100.00
2023-04-23T00:09:12.294Z,100.00
2023-04-23T00:11:41.050Z,100.00
2023-04-23T00:14:09.373Z,100.00
2023-04-23T00:16:39.858Z,100.00
2023-04-23T00:19:09.024Z,100.00
2023-04-23T00:21:36.923Z,100.00
2023-04-23T00:24:07.054Z,100.00
2023-04-23T00:26:35.229Z,100.00
2023-04-23T00:29:03.137Z,100.00
2023-04-23T00:31:31.175Z,100.00
2023-04-23T00:33:59.418Z,100.00
2023-04-23T00:36:27.268Z,100.00
2023-04-23T00:38:55.529Z,100.00
2023-04-23T00:41:24.907Z,100.00
2023-04-23T00:43:57.455Z,100.00
2023-04-23T00:46:26.968Z,100.00
2023-04-23T00:48:55.368Z,100.00
2023-04-23T00:51:24.634Z,100.00
2023-04-23T00:53:52.978Z,100.00
2023-04-23T00:56:22.119Z,100.00
2023-04-23T00:58:51.909Z,100.00
2023-04-23T01:01:21.885Z,100.00
2023-04-23T01:03:52.826Z,100.00
2023-04-23T01:06:21.792Z,100.00
2023-04-23T01:08:49.991Z,100.00
2023-04-23T01:11:17.971Z,100.00
2023-04-23T01:13:46.028Z,100.00
2023-04-23T01:16:14.111Z,100.00
2023-04-23T01:18:42.546Z,100.00
2023-04-23T01:21:12.358Z,100.00
2023-04-23T01:23:41.017Z,100.00
2023-04-23T01:26:10.841Z,100.00
2023-04-23T01:28:39.558Z,100.00
2023-04-23T01:31:07.862Z,100.00
2023-04-23T01:33:36.598Z,100.00
2023-04-23T01:36:05.193Z,100.00
2023-04-23T01:38:34.579Z,100.00
2023-04-23T01:41:02.532Z,100.00
2023-04-23T01:43:32.436Z,100.00
2023-04-23T01:46:00.892Z,100.00
2023-04-23T01:48:30.383Z,100.00
2023-04-23T01:50:58.732Z,100.00
2023-04-23T01:53:26.753Z,100.00
2023-04-23T01:55:56.796Z,100.00
2023-04-23T01:58:25.179Z,100.00
2023-04-23T02:00:55.000Z,100.00
2023-04-23T02:03:23.653Z,100.00
2023-04-23T02:05:55.761Z,100.00
2023-04-23T02:08:24.077Z,100.00
2023-04-23T02:10:52.894Z,100.00
2023-04-23T02:13:21.030Z,100.00
2023-04-23T02:15:49.250Z,100.00
2023-04-23T02:18:17.205Z,100.00
2023-04-23T02:20:45.193Z,100.00
2023-04-23T02:23:13.312Z,100.00
2023-04-23T02:25:42.669Z,100.00
2023-04-23T02:28:13.480Z,100.00
2023-04-23T02:30:46.132Z,100.00
2023-04-23T02:33:14.396Z,100.00
2023-04-23T02:35:42.398Z,100.00
2023-04-23T02:38:10.885Z,100.00
2023-04-23T02:40:38.964Z,100.00
2023-04-23T02:43:07.279Z,100.00
2023-04-23T02:45:35.377Z,100.00
2023-04-23T02:48:04.392Z,100.00
2023-04-23T02:50:32.380Z,100.00
2023-04-23T02:53:00.607Z,100.00
2023-04-23T02:55:32.205Z,100.00
2023-04-23T02:58:00.732Z,100.00
2023-04-23T03:00:29.396Z,100.00
2023-04-23T03:02:57.714Z,100.00
2023-04-23T03:05:26.162Z,100.00
2023-04-23T03:07:54.017Z,100.00
2023-04-23T03:10:22.363Z,100.00
2023-04-23T03:12:50.293Z,100.00
2023-04-23T03:15:18.649Z,100.00
2023-04-23T03:17:46.808Z,100.00
2023-04-23T03:20:16.818Z,100.00
2023-04-23T03:22:44.900Z,100.00
2023-04-23T03:25:13.721Z,100.00
2023-04-23T03:27:42.495Z,100.00
2023-04-23T03:30:11.752Z,100.00
2023-04-23T03:32:40.195Z,100.00
2023-04-23T03:35:09.741Z,100.00
2023-04-23T03:37:40.558Z,100.00
2023-04-23T03:40:10.210Z,100.00
2023-04-23T03:42:41.089Z,100.00
2023-04-23T03:45:11.619Z,100.00
2023-04-23T03:47:40.649Z,100.00
2023-04-23T03:50:10.073Z,100.00
2023-04-23T03:52:39.306Z,100.00
2023-04-23T03:55:12.292Z,100.00
2023-04-23T03:57:45.001Z,100.00
2023-04-23T04:00:25.273Z,100.00
2023-04-23T04:02:53.508Z,100.00
2023-04-23T04:05:24.042Z,100.00
2023-04-23T04:07:55.291Z,100.00
2023-04-23T04:10:23.276Z,100.00
2023-04-23T04:12:51.252Z,100.00
2023-04-23T04:15:21.159Z,100.00
2023-04-23T04:17:49.099Z,100.00
2023-04-23T04:20:17.026Z,100.00
2023-04-23T04:22:45.395Z,100.00
2023-04-23T04:25:13.322Z,100.00
2023-04-23T04:27:41.732Z,100.00
2023-04-23T04:30:10.598Z,100.00
2023-04-23T04:32:38.985Z,100.00
2023-04-23T04:35:09.180Z,100.00
2023-04-23T04:37:37.463Z,100.00
2023-04-23T04:40:07.750Z,100.00
2023-04-23T04:42:36.503Z,100.00
2023-04-23T04:45:06.236Z,100.00
2023-04-23T04:47:34.725Z,100.00
2023-04-23T04:50:03.844Z,100.00
2023-04-23T04:52:32.325Z,100.00
2023-04-23T04:55:00.458Z,100.00
2023-04-23T04:57:28.366Z,100.00
2023-04-23T04:59:57.753Z,100.00
2023-04-23T05:02:26.748Z,100.00
2023-04-23T05:04:54.776Z,100.00
2023-04-23T05:07:22.919Z,100.00
2023-04-23T05:09:51.001Z,100.00
2023-04-23T05:12:19.040Z,100.00
2023-04-23T05:14:47.150Z,100.00
2023-04-23T05:17:15.103Z,100.00
2023-04-23T05:19:42.980Z,100.00
2023-04-23T05:22:11.616Z,100.00
2023-04-23T05:24:39.835Z,100.00
2023-04-23T05:27:07.886Z,100.00
2023-04-23T05:29:36.507Z,100.00
2023-04-23T05:32:04.765Z,100.00
2023-04-23T05:34:33.079Z,100.00
2023-04-23T05:37:02.320Z,100.00
2023-04-23T05:39:30.774Z,100.00
2023-04-23T05:41:58.670Z,100.00
2023-04-23T05:44:26.835Z,100.00
2023-04-23T05:46:56.428Z,100.00
2023-04-23T05:49:24.375Z,100.00
2023-04-23T05:51:52.548Z,100.00
2023-04-23T05:54:20.768Z,100.00
2023-04-23T05:56:48.714Z,100.00
2023-04-23T05:59:16.842Z,100.00
2023-04-23T06:01:47.704Z,100.00
2023-04-23T06:04:17.363Z,100.00
2023-04-23T06:06:45.565Z,100.00
2023-04-23T06:09:13.697Z,100.00
2023-04-23T06:11:41.971Z,100.00
2023-04-23T06:14:10.685Z,100.00
2023-04-23T06:16:39.109Z,100.00
2023-04-23T06:19:07.639Z,100.00
2023-04-23T06:21:35.961Z,100.00
2023-04-23T06:24:04.357Z,100.00
2023-04-23T06:26:33.315Z,100.00
2023-04-23T06:29:06.665Z,100.00
2023-04-23T06:31:39.916Z,100.00
2023-04-23T06:34:08.193Z,100.00
2023-04-23T06:36:36.131Z,100.00
2023-04-23T06:39:05.404Z,100.00
2023-04-23T06:41:34.184Z,100.00
2023-04-23T06:44:13.918Z,100.00
2023-04-23T06:46:49.251Z,100.00
2023-04-23T06:49:17.511Z,100.00
2023-04-23T06:51:45.424Z,100.00
2023-04-23T06:54:13.534Z,100.00
2023-04-23T06:56:41.643Z,100.00
2023-04-23T06:59:11.291Z,100.00
2023-04-23T07:01:49.047Z,100.00
2023-04-23T07:04:17.474Z,100.00
2023-04-23T07:06:45.642Z,100.00
2023-04-23T07:09:13.632Z,100.00
2023-04-23T07:11:41.640Z,100.00
2023-04-23T07:14:09.710Z,98.90
2023-04-23T07:16:38.557Z,98.80
2023-04-23T07:19:06.489Z,96.33
2023-04-23T07:21:34.362Z,96.19
2023-04-23T07:24:07.495Z,97.22
2023-04-23T07:26:36.514Z,94.39
2023-04-23T07:29:07.873Z,96.11
2023-04-23T07:31:37.383Z,94.78
2023-04-23T07:34:06.009Z,93.61
2023-04-23T07:36:34.226Z,94.08
2023-04-23T07:39:02.747Z,91.59
2023-04-23T07:41:30.946Z,90.08
2023-04-23T07:43:58.810Z,93.91
2023-04-23T07:46:28.021Z,90.87
2023-04-23T07:48:56.783Z,90.86
2023-04-23T07:51:26.940Z,88.62
2023-04-23T07:53:56.564Z,89.22
2023-04-23T07:56:24.866Z,89.09
2023-04-23T07:58:54.253Z,84.08
2023-04-23T08:01:22.663Z,85.52
2023-04-23T08:03:50.851Z,82.37
2023-04-23T08:06:18.910Z,83.27
2023-04-23T08:08:47.535Z,84.95
2023-04-23T08:11:15.660Z,84.93
2023-04-23T08:13:43.659Z,81.17
2023-04-23T08:16:11.874Z,79.69
2023-04-23T08:18:39.884Z,79.77
2023-04-23T08:21:08.136Z,77.66
2023-04-23T08:23:36.127Z,77.73
2023-04-23T08:26:04.345Z,79.73
2023-04-23T08:28:32.223Z,77.13
2023-04-23T08:31:02.723Z,76.59
2023-04-23T08:33:33.432Z,72.45
2023-04-23T08:36:01.505Z,76.63
2023-04-23T08:38:29.598Z,76.15
2023-04-23T08:40:59.846Z,73.25
2023-04-23T08:44:32.952Z,73.01
2023-04-23T08:47:03.799Z,72.94
2023-04-23T08:49:35.856Z,75.17
2023-04-23T08:52:19.328Z,71.59
2023-04-23T08:54:52.805Z,73.85
2023-04-23T08:57:20.911Z,73.27
2023-04-23T08:59:49.023Z,75.73
2023-04-23T09:02:18.122Z,73.93
2023-04-23T09:04:47.942Z,73.63
2023-04-23T09:07:19.160Z,71.40
2023-04-23T09:09:47.712Z,72.61
2023-04-23T09:12:15.640Z,70.98
2023-04-23T09:14:44.251Z,71.28
2023-04-23T09:17:12.569Z,73.94
2023-04-23T09:19:41.263Z,75.33
2023-04-23T09:22:10.369Z,72.04
2023-04-23T09:24:41.829Z,73.62
2023-04-23T09:27:10.254Z,72.17
2023-04-23T09:29:38.502Z,72.84
2023-04-23T09:32:10.543Z,70.86
2023-04-23T09:34:38.826Z,71.19
2023-04-23T09:37:11.550Z,72.27
2023-04-23T09:39:40.318Z,71.69
2023-04-23T09:42:11.299Z,71.84
2023-04-23T09:44:39.548Z,71.23
2023-04-23T09:47:14.918Z,70.85
2023-04-23T09:49:49.141Z,71.60
2023-04-23T09:52:18.505Z,69.91
2023-04-23T09:54:46.924Z,69.62
2023-04-23T09:57:16.258Z,69.72
2023-04-23T09:59:47.655Z,71.97
2023-04-23T10:02:19.155Z,68.29
2023-04-23T10:05:00.672Z,68.57
2023-04-23T10:07:35.542Z,66.88
2023-04-23T10:10:04.296Z,68.38
2023-04-23T10:15:30.121Z,65.58
2023-04-23T10:17:59.451Z,65.14
2023-04-23T10:20:27.462Z,63.05
2023-04-23T10:23:01.276Z,62.38
2023-04-23T10:28:34.131Z,62.00
2023-04-23T10:31:04.199Z,61.79
2023-04-23T10:33:39.792Z,63.39
2023-04-23T10:36:15.080Z,62.75
2023-04-23T10:38:54.879Z,61.21
2023-04-23T10:41:35.985Z,60.56
2023-04-23T10:44:06.886Z,58.14
2023-04-23T10:46:37.953Z,56.94
2023-04-23T10:49:16.679Z,58.49
2023-04-23T10:54:20.690Z,54.87
2023-04-23T10:57:06.060Z,55.62
2023-04-23T10:59:39.930Z,55.38
2023-04-23T11:02:13.371Z,57.20
2023-04-23T11:04:58.604Z,59.51
2023-04-23T11:07:33.219Z,54.78
2023-04-23T11:10:15.375Z,58.23
2023-04-23T11:12:45.061Z,56.13
2023-04-23T11:15:15.114Z,55.94
2023-04-23T11:17:47.978Z,56.80
2023-04-23T11:20:24.137Z,58.80
2023-04-23T11:22:53.344Z,54.64
2023-04-23T11:25:27.822Z,56.02
2023-04-23T11:28:00.410Z,55.04
2023-04-23T11:30:30.761Z,54.13
2023-04-23T11:33:01.780Z,55.53
2023-04-23T11:35:39.143Z,53.58
2023-04-23T11:38:10.410Z,52.90
2023-04-23T11:40:40.531Z,51.13
2023-04-23T11:43:08.896Z,52.34
2023-04-23T11:45:37.434Z,52.85
2023-04-23T11:48:07.110Z,52.30
2023-04-23T11:50:37.478Z,54.08
2023-04-23T11:53:11.493Z,52.94
2023-04-23T11:55:44.157Z,53.91
2023-04-23T11:58:12.662Z,53.85
2023-04-23T12:00:41.434Z,54.82
2023-04-23T12:03:10.532Z,54.25
2023-04-23T12:05:44.974Z,55.56
2023-04-23T12:08:17.426Z,53.37
2023-04-23T12:11:01.591Z,54.40
2023-04-23T12:13:33.816Z,52.10
2023-04-23T12:16:05.398Z,52.82
2023-04-23T12:18:42.691Z,51.64
2023-04-23T12:21:14.613Z,52.90
2023-04-23T12:23:45.207Z,51.45
2023-04-23T12:26:16.080Z,54.58
2023-04-23T12:28:56.745Z,55.63
2023-04-23T12:31:31.340Z,54.04
2023-04-23T12:34:07.902Z,53.84
2023-04-23T12:36:38.743Z,55.37
2023-04-23T12:39:31.931Z,53.56
2023-04-23T12:42:10.590Z,52.85
2023-04-23T12:44:39.386Z,52.88
2023-04-23T12:47:11.507Z,52.63
2023-04-23T12:49:42.260Z,52.44
2023-04-23T12:52:12.830Z,51.14
2023-04-23T12:54:41.938Z,52.04
2023-04-23T12:57:13.116Z,50.12
2023-04-23T12:59:41.455Z,51.72
2023-04-23T13:02:10.174Z,50.82
2023-04-23T13:04:38.700Z,50.33
2023-04-23T13:07:06.696Z,49.93
2023-04-23T13:09:37.120Z,51.87
2023-04-23T13:12:05.379Z,51.16
2023-04-23T13:14:33.964Z,50.45
2023-04-23T13:17:03.150Z,52.09
2023-04-23T13:19:33.742Z,50.39
2023-04-23T13:22:05.352Z,48.73
2023-04-23T13:24:33.799Z,49.22
2023-04-23T13:27:02.680Z,51.69
2023-04-23T13:29:30.904Z,50.61
2023-04-23T13:31:59.397Z,51.80
2023-04-23T13:34:27.639Z,51.76
2023-04-23T13:36:55.782Z,52.10
2023-04-23T13:39:24.011Z,52.58
2023-04-23T13:42:06.152Z,51.02
2023-04-23T13:44:38.322Z,51.19
2023-04-23T13:47:06.313Z,49.76
2023-04-23T13:49:34.320Z,50.58
2023-04-23T13:52:07.096Z,48.63
2023-04-23T13:54:38.304Z,49.49
2023-04-23T13:57:06.698Z,49.27
2023-04-23T13:59:34.750Z,48.48
2023-04-23T14:02:02.639Z,46.97
2023-04-23T14:04:30.978Z,49.95
2023-04-23T14:06:59.013Z,50.06
2023-04-23T14:09:27.049Z,49.10
2023-04-23T14:11:55.026Z,48.06
2023-04-23T14:14:23.270Z,49.71
2023-04-23T14:16:51.444Z,49.42
2023-04-23T14:19:19.755Z,49.78
2023-04-23T14:21:48.898Z,49.22
2023-04-23T14:24:27.587Z,48.89
2023-04-23T14:26:55.727Z,48.16
2023-04-23T14:29:42.501Z,48.63
2023-04-23T14:32:10.974Z,49.15
2023-04-23T14:34:39.723Z,49.50
2023-04-23T14:37:08.067Z,49.36
2023-04-23T14:39:36.193Z,48.02
2023-04-23T14:42:04.666Z,46.63
2023-04-23T14:44:33.277Z,46.60
2023-04-23T14:47:01.678Z,46.84
2023-04-23T14:49:29.592Z,48.02
2023-04-23T14:51:58.162Z,48.13
2023-04-23T14:54:26.488Z,49.75
2023-04-23T14:56:54.408Z,47.73
2023-04-23T14:59:23.624Z,49.24
2023-04-23T15:01:51.787Z,50.15
2023-04-23T15:04:19.934Z,48.12
2023-04-23T15:06:48.110Z,49.32
2023-04-23T15:09:17.697Z,47.31
2023-04-23T15:11:45.748Z,47.23
2023-04-23T15:14:37.063Z,48.69
2023-04-23T15:17:05.003Z,48.01
2023-04-23T15:19:33.071Z,48.27
2023-04-23T15:22:01.351Z,50.43
2023-04-23T15:24:29.306Z,50.54
2023-04-23T15:26:59.402Z,50.37
2023-04-23T15:29:27.659Z,49.80
2023-04-23T15:31:58.606Z,50.83
2023-04-23T15:34:27.462Z,50.06
2023-04-23T15:36:57.061Z,49.65
2023-04-23T15:39:26.357Z,49.13
2023-04-23T15:41:54.503Z,50.00
2023-04-23T15:44:23.187Z,50.77
2023-04-23T15:46:51.236Z,50.54
2023-04-23T15:49:19.333Z,51.24
2023-04-23T15:51:47.849Z,49.85
2023-04-23T15:54:15.773Z,50.60
2023-04-23T15:56:44.101Z,50.20
2023-04-23T15:59:12.265Z,51.66
2023-04-23T16:01:40.402Z,51.95
2023-04-23T16:04:10.442Z,51.63
2023-04-23T16:06:40.111Z,52.26
2023-04-23T16:09:08.620Z,53.22
2023-04-23T16:11:38.437Z,52.69
2023-04-23T16:14:07.686Z,53.25
2023-04-23T16:16:35.899Z,52.86
2023-04-23T16:19:04.529Z,54.00
2023-04-23T16:21:32.826Z,53.24
2023-04-23T16:24:01.297Z,54.78
2023-04-23T16:26:29.958Z,54.77
2023-04-23T16:31:29.338Z,53.29
2023-04-23T16:33:58.727Z,53.37
2023-04-23T16:36:28.421Z,53.56
2023-04-23T16:38:57.870Z,54.54
2023-04-23T16:41:26.314Z,54.34
2023-04-23T16:43:54.486Z,54.79
2023-04-23T16:46:22.953Z,56.22
2023-04-23T16:48:51.443Z,55.98
2023-04-23T16:51:19.661Z,55.93
2023-04-23T16:53:48.938Z,57.00
2023-04-23T16:56:17.757Z,57.80
2023-04-23T16:58:46.988Z,59.44
2023-04-23T17:01:17.866Z,59.51
2023-04-23T17:03:46.661Z,60.52
2023-04-23T17:06:33.700Z,60.49
2023-04-23T17:09:05.592Z,60.40
2023-04-23T17:11:33.857Z,60.83
2023-04-23T17:14:02.263Z,60.93
2023-04-23T17:16:30.736Z,60.70
2023-04-23T17:18:58.961Z,61.49
2023-04-23T17:21:27.499Z,61.33
2023-04-23T17:23:56.230Z,61.51
2023-04-23T17:26:24.563Z,62.15
2023-04-23T17:28:53.184Z,63.46
2023-04-23T17:31:22.117Z,64.04
2023-04-23T17:33:50.740Z,64.40
2023-04-23T17:36:19.352Z,65.31
2023-04-23T17:38:47.564Z,65.61
2023-04-23T17:41:17.545Z,66.51
2023-04-23T17:43:46.191Z,66.97
2023-04-23T17:46:14.305Z,67.67
2023-04-23T17:48:42.545Z,68.32
2023-04-23T17:51:10.697Z,68.65
2023-04-23T17:53:39.490Z,69.17
2023-04-23T17:56:07.673Z,70.48
2023-04-23T17:58:36.130Z,71.45
2023-04-23T18:01:09.383Z,71.50
2023-04-23T18:03:38.414Z,72.15
2023-04-23T18:06:08.665Z,72.47
2023-04-23T18:08:39.882Z,73.21
2023-04-23T18:11:09.576Z,74.07
2023-04-23T18:13:38.113Z,76.25
2023-04-23T18:16:06.566Z,79.14
2023-04-23T18:18:34.700Z,80.33
2023-04-23T18:21:04.107Z,80.22
2023-04-23T18:23:32.917Z,80.01
2023-04-23T18:26:02.057Z,83.26
2023-04-23T18:28:30.152Z,88.14
2023-04-23T18:31:02.805Z,92.91
2023-04-23T18:33:43.087Z,98.40
2023-04-23T18:36:33.309Z,100.00
2023-04-23T18:39:01.545Z,100.00
2023-04-23T18:41:30.998Z,100.00
2023-04-23T18:44:00.541Z,100.00
2023-04-23T18:46:31.379Z,100.00
2023-04-23T18:49:20.107Z,100.00
2023-04-23T18:51:52.566Z,100.00
2023-04-23T18:54:21.073Z,100.00
2023-04-23T18:56:51.026Z,100.00
2023-04-23T18:59:19.900Z,100.00
2023-04-23T19:01:48.611Z,100.00
2023-04-23T19:04:17.104Z,100.00
2023-04-23T19:06:45.471Z,100.00
2023-04-23T19:09:13.847Z,100.00
2023-04-23T19:11:42.707Z,100.00
2023-04-23T19:14:10.784Z,100.00
2023-04-23T19:16:39.585Z,100.00
2023-04-23T19:19:08.129Z,100.00
2023-04-23T19:21:36.333Z,100.00
2023-04-23T19:24:04.976Z,100.00
2023-04-23T19:26:33.603Z,100.00
2023-04-23T19:29:04.970Z,100.00
2023-04-23T19:31:35.031Z,100.00
2023-04-23T19:34:03.376Z,100.00
2023-04-23T19:36:32.704Z,100.00
2023-04-23T19:39:04.237Z,100.00
2023-04-23T19:41:33.308Z,100.00
2023-04-23T19:44:01.358Z,100.00
2023-04-23T19:46:29.623Z,100.00
2023-04-23T19:48:58.019Z,100.00
2023-04-23T19:51:33.014Z,100.00
2023-04-23T19:54:02.545Z,100.00
2023-04-23T19:56:30.970Z,100.00
2023-04-23T19:58:59.381Z,100.00
2023-04-23T20:01:30.053Z,100.00
2023-04-23T20:03:58.472Z,100.00
2023-04-23T20:06:29.520Z,100.00
2023-04-23T20:09:16.175Z,100.00
2023-04-23T20:11:48.884Z,100.00
2023-04-23T20:14:17.015Z,100.00
2023-04-23T20:16:45.543Z,100.00
2023-04-23T20:19:15.039Z,100.00
2023-04-23T20:21:43.149Z,100.00
2023-04-23T20:24:12.740Z,100.00
2023-04-23T20:26:42.300Z,100.00
2023-04-23T20:29:10.689Z,100.00
2023-04-23T20:31:38.830Z,100.00
2023-04-23T20:34:07.276Z,100.00
2023-04-23T20:36:38.774Z,100.00
2023-04-23T20:39:08.532Z,100.00
2023-04-23T20:41:37.082Z,100.00
2023-04-23T20:44:05.424Z,100.00
2023-04-23T20:46:33.855Z,100.00
2023-04-23T20:49:03.508Z,100.00
2023-04-23T20:51:35.140Z,100.00
2023-04-23T20:54:03.322Z,100.00
2023-04-23T20:56:31.705Z,100.00
2023-04-23T20:59:00.311Z,100.00
2023-04-23T21:01:28.908Z,100.00
2023-04-23T21:04:01.156Z,100.00
2023-04-23T21:06:31.386Z,100.00
2023-04-23T21:08:59.782Z,100.00
2023-04-23T21:11:28.437Z,100.00
2023-04-23T21:13:57.312Z,100.00
2023-04-23T21:16:27.441Z,100.00
2023-04-23T21:18:56.086Z,100.00
2023-04-23T21:21:28.110Z,100.00
2023-04-23T21:23:57.189Z,100.00
2023-04-23T21:26:25.552Z,100.00
2023-04-23T21:28:53.599Z,100.00
2023-04-23T21:31:52.332Z,100.00
2023-04-23T21:34:21.732Z,100.00
2023-04-23T21:36:50.164Z,100.00
2023-04-23T21:39:18.280Z,100.00
2023-04-23T21:41:48.083Z,100.00
2023-04-23T21:44:17.136Z,100.00
2023-04-23T21:46:45.999Z,100.00
2023-04-23T21:49:14.364Z,100.00
2023-04-23T21:51:42.536Z,100.00
2023-04-23T21:54:10.920Z,100.00
2023-04-23T21:56:38.976Z,100.00
2023-04-23T21:59:07.055Z,100.00
2023-04-23T22:01:36.842Z,100.00
2023-04-23T22:04:05.202Z,100.00
2023-04-23T22:06:34.468Z,100.00
2023-04-23T22:09:03.128Z,100.00
2023-04-23T22:11:31.612Z,100.00
2023-04-23T22:14:00.270Z,100.00
2023-04-23T22:16:29.348Z,100.00
2023-04-23T22:18:57.947Z,100.00
2023-04-23T22:21:26.144Z,100.00
2023-04-23T22:23:54.282Z,100.00
2023-04-23T22:26:22.250Z,100.00
2023-04-23T22:28:50.468Z,100.00
2023-04-23T22:31:18.777Z,100.00
2023-04-23T22:33:46.855Z,100.00
2023-04-23T22:36:16.961Z,100.00
2023-04-23T22:38:45.141Z,100.00
2023-04-23T22:41:12.996Z,100.00
2023-04-23T22:43:41.140Z,100.00
2023-04-23T22:46:09.249Z,100.00
2023-04-23T22:48:37.870Z,100.00
2023-04-23T22:51:07.023Z,100.00
2023-04-23T22:53:35.289Z,100.00
2023-04-23T22:56:03.253Z,100.00
2023-04-23T22:58:31.526Z,100.00
2023-04-23T23:00:59.679Z,100.00
2023-04-23T23:03:27.726Z,100.00
2023-04-23T23:05:56.154Z,100.00
2023-04-23T23:08:25.378Z,100.00
2023-04-23T23:10:53.392Z,100.00
2023-04-23T23:13:21.576Z,100.00
2023-04-23T23:15:49.816Z,100.00
2023-04-23T23:18:17.759Z,100.00
2023-04-23T23:20:45.924Z,100.00
2023-04-23T23:23:14.008Z,100.00
2023-04-23T23:25:41.929Z,100.00
2023-04-23T23:28:09.866Z,100.00
2023-04-23T23:30:38.137Z,100.00
2023-04-23T23:33:06.220Z,100.00
2023-04-23T23:35:35.204Z,100.00
2023-04-23T23:38:03.965Z,100.00
2023-04-23T23:40:32.086Z,100.00
2023-04-23T23:42:59.975Z,100.00
2023-04-23T23:45:29.142Z,100.00
2023-04-23T23:47:57.078Z,100.00
2023-04-23T23:50:26.258Z,100.00
2023-04-23T23:52:55.849Z,100.00
2023-04-23T23:55:23.682Z,100.00
2023-04-23T23:57:51.600Z,100.00
